Time;durP1;ratioP1;P1;durP2;ratioP2;P2;SDS_P1;SDS_P2;PMS_P1;PMS_P2;Temp;Humidity;BMP_temperature;BMP_pressure;BME280_temperature;BME280_humidity;BME280_pressure;Samples;Min_cycle;Max_cycle;Signal;HPM_P1;HPM_P2
2022/03/19 00:02:01;;;;;;;;;;;;;;;;;;4408152;32;19970;-75
2022/03/19 00:04:26;;;;;;;;;;;;;;;;;;4418128;32;19938;-75
2022/03/19 00:06:51;;;;;;;;;;;;;;;;;;4408206;32;20282;-76
2022/03/19 00:09:16;;;;;;;;;;;;;;;;;;4407700;32;19937;-74
2022/03/19 00:11:41;;;;;;;;;;;;;;;;;;4408240;32;20307;-73
2022/03/19 00:14:08;;;;;;;;;;;;;;;;;;4406594;32;19938;-76
2022/03/19 00:16:33;;;;;;;;;;;;;;;;;;4406895;32;19940;-75
2022/03/19 00:18:58;;;;;;;;;;;;;;;;;;4406991;32;19993;-75
2022/03/19 00:21:23;;;;;;;;;;;;;;;;;;4406420;32;19981;-74
2022/03/19 00:23:48;;;;;;;;;;;;;;;;;;4405197;32;19985;-73
2022/03/19 00:26:14;;;;;;;;;;;;;;;;;;4406817;32;19953;-75
2022/03/19 00:28:40;;;;;;;;;;;;;;;;;;4406269;32;19957;-74
2022/03/19 00:31:05;;;;;;;;;;;;;;;;;;4406597;32;19984;-75
2022/03/19 00:33:30;;;;;;;;;;;;;;;;;;4405101;32;19985;-77
2022/03/19 00:35:55;;;;;;;;;;;;;;;;;;4406653;32;20270;-75
2022/03/19 00:38:20;;;;;;;;;;;;;;;;;;4405923;32;20258;-75
2022/03/19 00:40:46;;;;;;;;;;;;;;;;;;4406842;32;19942;-78
2022/03/19 00:43:11;;;;;;;;;;;;;;;;;;4408009;32;19999;-74
2022/03/19 00:45:36;;;;;;;;;;;;;;;;;;4406460;32;19956;-75
2022/03/19 00:48:01;;;;;;;;;;;;;;;;;;4406461;32;19934;-75
2022/03/19 00:50:26;;;;;;;;;;;;;;;;;;4406787;32;19937;-74
2022/03/19 00:52:51;;;;;;;;;;;;;;;;;;4406512;32;19934;-74
2022/03/19 00:55:16;;;;;;;;;;;;;;;;;;4405796;32;20078;-75
2022/03/19 00:57:41;;;;;;;;;;;;;;;;;;4418767;32;19948;-75
2022/03/19 01:00:06;;;;;;;;;;;;;;;;;;4405543;32;19948;-75
2022/03/19 01:02:32;;;;;;;;;;;;;;;;;;4406461;32;19960;-76
2022/03/19 01:04:57;;;;;;;;;;;;;;;;;;4405796;32;19949;-75
2022/03/19 01:07:22;;;;;;;;;;;;;;;;;;4405382;32;20023;-76
2022/03/19 01:09:47;;;;;;;;;;;;;;;;;;4407633;32;20087;-76
2022/03/19 01:12:12;;;;;;;;;;;;;;;;;;4405554;32;19965;-75
2022/03/19 01:14:37;;;;;;;;;;;;;;;;;;4406883;32;19967;-75
2022/03/19 01:17:03;;;;;;;;;;;;;;;;;;4405556;32;19968;-76
2022/03/19 01:22:12;;;;;;;;;;;;;;;;;;4407348;32;19967;-74
2022/03/19 01:24:37;;;;;;;;;;;;;;;;;;4406949;32;19937;-76
2022/03/19 01:27:02;;;;;;;;;;;;;;;;;;4407436;32;20008;-77
2022/03/19 01:29:27;;;;;;;;;;;;;;;;;;4405915;32;19946;-74
2022/03/19 01:31:53;;;;;;;;;;;;;;;;;;4405333;32;19967;-74
2022/03/19 01:34:18;;;;;;;;;;;;;;;;;;4407668;32;20342;-74
2022/03/19 01:36:43;;;;;;;;;;;;;;;;;;4406533;32;19944;-74
2022/03/19 01:39:08;;;;;;;;;;;;;;;;;;4405236;32;19975;-75
2022/03/19 01:41:33;;;;;;;;;;;;;;;;;;4405724;32;19972;-73
2022/03/19 01:43:58;;;;;;;;;;;;;;;;;;4406028;32;19964;-74
2022/03/19 01:46:23;;;;;;;;;;;;;;;;;;4404085;32;19961;-74
2022/03/19 01:48:48;;;;;;;;;;;;;;;;;;4405685;32;20249;-76
2022/03/19 01:51:13;;;;;;;;;;;;;;;;;;4405260;32;19942;-75
2022/03/19 01:53:38;;;;;;;;;;;;;;;;;;4405045;32;19967;-75
2022/03/19 01:56:06;;;;;;;;;;;;;;;;;;4406956;32;19975;-78
2022/03/19 01:58:31;;;;;;;;;;;;;;;;;;4405492;32;19937;-75
2022/03/19 02:00:56;;;;;;;;;;;;;;;;;;4405769;32;19976;-75
2022/03/19 02:03:22;;;;;;;;;;;;;;;;;;4405169;32;20402;-75
2022/03/19 02:05:48;;;;;;;;;;;;;;;;;;4406026;32;19952;-76
2022/03/19 02:08:13;;;;;;;;;;;;;;;;;;4405355;32;19937;-74
2022/03/19 02:10:39;;;;;;;;;;;;;;;;;;4406543;32;20329;-75
2022/03/19 02:13:05;;;;;;;;;;;;;;;;;;4405684;32;20323;-74
2022/03/19 02:15:30;;;;;;;;;;;;;;;;;;4406348;32;20410;-74
2022/03/19 02:17:55;;;;;;;;;;;;;;;;;;4405095;32;19968;-74
2022/03/19 02:20:20;;;;;;;;;;;;;;;;;;4409417;32;19957;-74
2022/03/19 02:25:34;;;;;;;;;;;;;;;;;;4407848;32;19929;-76
2022/03/19 02:25:36;;;;;;;;;;;;;;;;;;4407980;32;19957;-76
2022/03/19 02:28:01;;;;;;;;;;;;;;;;;;4409003;32;19937;-74
2022/03/19 02:30:26;;;;;;;;;;;;;;;;;;4408526;32;19975;-74
2022/03/19 02:32:51;;;;;;;;;;;;;;;;;;4406872;32;19941;-75
2022/03/19 02:35:17;;;;;;;;;;;;;;;;;;4407981;32;19975;-77
2022/03/19 02:37:43;;;;;;;;;;;;;;;;;;4408646;32;19967;-76
2022/03/19 02:40:08;;;;;;;;;;;;;;;;;;4407745;32;19979;-74
2022/03/19 02:42:33;;;;;;;;;;;;;;;;;;4408662;32;19937;-75
2022/03/19 02:44:58;;;;;;;;;;;;;;;;;;4407850;32;19937;-73
2022/03/19 02:47:23;;;;;;;;;;;;;;;;;;4407788;32;19933;-74
2022/03/19 02:49:48;;;;;;;;;;;;;;;;;;4408162;32;19938;-75
2022/03/19 02:52:13;;;;;;;;;;;;;;;;;;4408282;32;19933;-75
2022/03/19 02:54:38;;;;;;;;;;;;;;;;;;4407632;32;19948;-75
2022/03/19 02:57:03;;;;;;;;;;;;;;;;;;4407649;32;20360;-76
2022/03/19 02:59:28;;;;;;;;;;;;;;;;;;4407732;32;19979;-75
2022/03/19 03:01:53;;;;;;;;;;;;;;;;;;4407642;32;19948;-75
2022/03/19 03:04:19;;;;;;;;;;;;;;;;;;4407499;32;20349;-75
2022/03/19 03:06:44;;;;;;;;;;;;;;;;;;4418696;32;20009;-75
2022/03/19 03:09:09;;;;;;;;;;;;;;;;;;4408681;32;19952;-73
2022/03/19 03:11:34;;;;;;;;;;;;;;;;;;4407791;32;19937;-75
2022/03/19 03:13:59;;;;;;;;;;;;;;;;;;4408093;32;19933;-74
2022/03/19 03:16:24;;;;;;;;;;;;;;;;;;4407707;32;19929;-76
2022/03/19 03:18:49;;;;;;;;;;;;;;;;;;4409099;32;19975;-76
2022/03/19 03:21:14;;;;;;;;;;;;;;;;;;4407364;32;19934;-76
2022/03/19 03:23:39;;;;;;;;;;;;;;;;;;4419073;32;19941;-75
2022/03/19 03:26:05;;;;;;;;;;;;;;;;;;4408052;32;19952;-74
2022/03/19 03:28:30;;;;;;;;;;;;;;;;;;4407449;32;20305;-74
2022/03/19 03:30:55;;;;;;;;;;;;;;;;;;4406708;32;19941;-74
2022/03/19 03:33:20;;;;;;;;;;;;;;;;;;4408163;32;19948;-74
2022/03/19 03:35:45;;;;;;;;;;;;;;;;;;4407144;32;19929;-75
2022/03/19 03:38:10;;;;;;;;;;;;;;;;;;4408617;32;19979;-75
2022/03/19 03:40:35;;;;;;;;;;;;;;;;;;4407591;32;19961;-75
2022/03/19 03:43:00;;;;;;;;;;;;;;;;;;4406994;32;19948;-74
2022/03/19 03:45:25;;;;;;;;;;;;;;;;;;4409011;32;19945;-74
2022/03/19 03:47:50;;;;;;;;;;;;;;;;;;4405663;32;19952;-74
2022/03/19 03:50:16;;;;;;;;;;;;;;;;;;4407448;32;19946;-74
2022/03/19 03:52:41;;;;;;;;;;;;;;;;;;4406133;32;20319;-75
2022/03/19 03:55:07;;;;;;;;;;;;;;;;;;4407717;32;20251;-77
2022/03/19 03:57:34;;;;;;;;;;;;;;;;;;4406308;32;19934;-74
2022/03/19 03:59:59;;;;;;;;;;;;;;;;;;4405696;32;19944;-74
2022/03/19 04:02:24;;;;;;;;;;;;;;;;;;4407761;32;19981;-74
2022/03/19 04:04:49;;;;;;;;;;;;;;;;;;4406958;32;20292;-75
2022/03/19 04:07:14;;;;;;;;;;;;;;;;;;4405715;32;19969;-74
2022/03/19 04:09:39;;;;;;;;;;;;;;;;;;4405829;32;19956;-72
2022/03/19 04:12:04;;;;;;;;;;;;;;;;;;4407040;32;20307;-74
2022/03/19 04:14:29;;;;;;;;;;;;;;;;;;4408809;32;19995;-74
2022/03/19 04:16:54;;;;;;;;;;;;;;;;;;4407314;32;19949;-74
2022/03/19 04:19:19;;;;;;;;;;;;;;;;;;4406809;32;20334;-76
2022/03/19 04:21:44;;;;;;;;;;;;;;;;;;4408098;32;19971;-74
2022/03/19 04:24:09;;;;;;;;;;;;;;;;;;4406921;32;19948;-75
2022/03/19 04:26:34;;;;;;;;;;;;;;;;;;4407061;32;20300;-74
2022/03/19 04:29:00;;;;;;;;;;;;;;;;;;4405361;32;19937;-73
2022/03/19 04:31:25;;;;;;;;;;;;;;;;;;4406663;32;19941;-75
2022/03/19 04:33:50;;;;;;;;;;;;;;;;;;4408601;32;19934;-74
2022/03/19 04:36:30;;;;;;;;;;;;;;;;;;4405940;32;19945;-74
2022/03/19 04:38:55;;;;;;;;;;;;;;;;;;4404743;32;19945;-74
2022/03/19 04:41:20;;;;;;;;;;;;;;;;;;4405854;32;19954;-75
2022/03/19 04:43:46;;;;;;;;;;;;;;;;;;4406812;32;19938;-75
2022/03/19 04:46:11;;;;;;;;;;;;;;;;;;4405944;32;19937;-74
2022/03/19 04:48:36;;;;;;;;;;;;;;;;;;4405057;32;19985;-76
2022/03/19 04:51:01;;;;;;;;;;;;;;;;;;4405016;32;19983;-76
2022/03/19 04:53:26;;;;;;;;;;;;;;;;;;4406352;32;19956;-74
2022/03/19 04:55:51;;;;;;;;;;;;;;;;;;4406383;32;20323;-74
2022/03/19 04:58:16;;;;;;;;;;;;;;;;;;4407643;32;19934;-73
2022/03/19 05:00:42;;;;;;;;;;;;;;;;;;4407131;32;20305;-74
2022/03/19 05:03:07;;;;;;;;;;;;;;;;;;4405873;32;20286;-74
2022/03/19 05:05:32;;;;;;;;;;;;;;;;;;4405719;32;19975;-74
2022/03/19 05:07:57;;;;;;;;;;;;;;;;;;4407197;32;19947;-75
2022/03/19 05:13:07;;;;;;;;;;;;;;;;;;4407516;32;19933;-74
2022/03/19 05:15:32;;;;;;;;;;;;;;;;;;4404522;32;19972;-74
2022/03/19 05:17:57;;;;;;;;;;;;;;;;;;4406231;32;20267;-74
2022/03/19 05:20:22;;;;;;;;;;;;;;;;;;4405658;32;19968;-75
2022/03/19 05:22:47;;;;;;;;;;;;;;;;;;4404449;32;19999;-75
2022/03/19 05:25:12;;;;;;;;;;;;;;;;;;4405485;32;19977;-74
2022/03/19 05:27:37;;;;;;;;;;;;;;;;;;4404438;32;19961;-76
2022/03/19 05:30:03;;;;;;;;;;;;;;;;;;4405404;32;19949;-74
2022/03/19 05:32:28;;;;;;;;;;;;;;;;;;4407756;32;19933;-74
2022/03/19 05:34:53;;;;;;;;;;;;;;;;;;4409202;32;20062;-74
2022/03/19 05:37:18;;;;;;;;;;;;;;;;;;4407242;32;19948;-74
2022/03/19 05:39:43;;;;;;;;;;;;;;;;;;4405427;32;19946;-74
2022/03/19 05:42:08;;;;;;;;;;;;;;;;;;4406889;32;20277;-75
2022/03/19 05:44:33;;;;;;;;;;;;;;;;;;4416858;32;19948;-74
2022/03/19 05:46:58;;;;;;;;;;;;;;;;;;4405818;32;19968;-75
2022/03/19 05:49:23;;;;;;;;;;;;;;;;;;4407449;32;19933;-73
2022/03/19 05:51:48;;;;;;;;;;;;;;;;;;4406991;32;20050;-74
2022/03/19 05:54:13;;;;;;;;;;;;;;;;;;4404828;32;19948;-74
2022/03/19 05:56:39;;;;;;;;;;;;;;;;;;4416783;32;19952;-77
2022/03/19 05:59:04;;;;;;;;;;;;;;;;;;4407309;32;19986;-73
2022/03/19 06:01:29;;;;;;;;;;;;;;;;;;4405946;32;19971;-73
2022/03/19 06:03:54;;;;;;;;;;;;;;;;;;4405466;32;19937;-74
2022/03/19 06:06:19;;;;;;;;;;;;;;;;;;4405332;32;19952;-73
2022/03/19 06:08:44;;;;;;;;;;;;;;;;;;4405298;32;19971;-74
2022/03/19 06:11:09;;;;;;;;;;;;;;;;;;4405533;32;19938;-75
2022/03/19 06:13:34;;;;;;;;;;;;;;;;;;4403839;32;19938;-75
2022/03/19 06:15:59;;;;;;;;;;;;;;;;;;4405528;32;19941;-75
2022/03/19 06:18:24;;;;;;;;;;;;;;;;;;4406507;32;20295;-75
2022/03/19 06:20:50;;;;;;;;;;;;;;;;;;4404732;32;19960;-74
2022/03/19 06:23:15;;;;;;;;;;;;;;;;;;4405565;32;19952;-76
2022/03/19 06:25:40;;;;;;;;;;;;;;;;;;4416789;32;20375;-75
2022/03/19 06:28:05;;;;;;;;;;;;;;;;;;4405780;32;19952;-75
2022/03/19 06:30:32;;;;;;;;;;;;;;;;;;4416458;32;19948;-74
2022/03/19 06:32:58;;;;;;;;;;;;;;;;;;4406298;32;19937;-74
2022/03/19 06:38:07;;;;;;;;;;;;;;;;;;4405482;32;20270;-73
2022/03/19 06:40:32;;;;;;;;;;;;;;;;;;4416620;32;20386;-75
2022/03/19 06:42:58;;;;;;;;;;;;;;;;;;4416303;32;19946;-76
2022/03/19 06:45:23;;;;;;;;;;;;;;;;;;4403648;32;19989;-76
2022/03/19 06:47:48;;;;;;;;;;;;;;;;;;4405757;32;19933;-75
2022/03/19 06:50:13;;;;;;;;;;;;;;;;;;4406228;32;19953;-74
2022/03/19 06:52:38;;;;;;;;;;;;;;;;;;4404927;32;20001;-75
2022/03/19 06:55:04;;;;;;;;;;;;;;;;;;4405701;32;19978;-74
2022/03/19 06:57:29;;;;;;;;;;;;;;;;;;4405399;32;19938;-79
2022/03/19 06:59:54;;;;;;;;;;;;;;;;;;4405186;32;20295;-76
2022/03/19 07:02:19;;;;;;;;;;;;;;;;;;4405406;32;19972;-75
2022/03/19 07:04:53;;;;;;;;;;;;;;;;;;4405365;32;20288;-76
2022/03/19 07:07:18;;;;;;;;;;;;;;;;;;4408744;32;20321;-75
2022/03/19 07:09:43;;;;;;;;;;;;;;;;;;4412505;32;19937;-75
2022/03/19 07:12:11;;;;;;;;;;;;;;;;;;4408155;32;20002;-74
2022/03/19 07:14:36;;;;;;;;;;;;;;;;;;4418884;32;19944;-75
2022/03/19 07:17:01;;;;;;;;;;;;;;;;;;4412006;32;19937;-78
2022/03/19 07:19:26;;;;;;;;;;;;;;;;;;4410933;32;19945;-76
2022/03/19 07:21:52;;;;;;;;;;;;;;;;;;4420459;32;20317;-76
2022/03/19 07:24:17;;;;;;;;;;;;;;;;;;4419567;32;19988;-76
2022/03/19 07:26:42;;;;;;;;;;;;;;;;;;4408613;32;19974;-76
2022/03/19 07:29:07;;;;;;;;;;;;;;;;;;4407993;32;19934;-75
2022/03/19 07:31:32;;;;;;;;;;;;;;;;;;4409033;32;20052;-76
2022/03/19 07:33:57;;;;;;;;;;;;;;;;;;4412734;32;19968;-77
2022/03/19 07:36:23;;;;;;;;;;;;;;;;;;4421188;32;19976;-79
2022/03/19 07:38:48;;;;;;;;;;;;;;;;;;4422313;32;19937;-80
2022/03/19 07:43:57;;;;;;;;;;;;;;;;;;4422742;32;20360;-82
2022/03/19 07:46:27;;;;;;;;;;;;;;;;;;4423287;32;19976;-82
2022/03/19 07:48:52;;;;;;;;;;;;;;;;;;4423087;32;19936;-80
2022/03/19 07:51:17;;;;;;;;;;;;;;;;;;4421634;32;19952;-78
2022/03/19 07:53:42;;;;;;;;;;;;;;;;;;4423552;32;20000;-81
2022/03/19 07:56:07;;;;;;;;;;;;;;;;;;4422637;32;19937;-78
2022/03/19 07:58:32;;;;;;;;;;;;;;;;;;4423585;32;19964;-80
2022/03/19 08:00:57;;;;;;;;;;;;;;;;;;4424725;32;19993;-82
2022/03/19 08:03:23;;;;;;;;;;;;;;;;;;4423471;32;19989;-77
2022/03/19 08:05:48;;;;;;;;;;;;;;;;;;4423158;32;20314;-77
2022/03/19 08:08:14;;;;;;;;;;;;;;;;;;4422243;32;19941;-77
2022/03/19 08:10:39;;;;;;;;;;;;;;;;;;4422404;32;19933;-79
2022/03/19 08:13:04;;;;;;;;;;;;;;;;;;4422672;32;20302;-78
2022/03/19 08:15:29;;;;;;;;;;;;;;;;;;4422297;32;19984;-79
2022/03/19 08:17:54;;;;;;;;;;;;;;;;;;4422018;32;19940;-78
2022/03/19 08:20:19;;;;;;;;;;;;;;;;;;4422521;32;20314;-77
2022/03/19 08:22:45;;;;;;;;;;;;;;;;;;4422768;32;19981;-78
2022/03/19 08:25:10;;;;;;;;;;;;;;;;;;4422952;32;19945;-75
2022/03/19 08:27:35;;;;;;;;;;;;;;;;;;4421872;32;19944;-77
2022/03/19 08:30:03;;;;;;;;;;;;;;;;;;4420797;32;19952;-74
2022/03/19 08:32:28;;;;;;;;;;;;;;;;;;4422191;32;19979;-75
2022/03/19 08:34:54;;;;;;;;;;;;;;;;;;4420209;32;20289;-77
2022/03/19 08:37:19;;;;;;;;;;;;;;;;;;4421755;32;19971;-79
2022/03/19 08:42:28;;;;;;;;;;;;;;;;;;4406977;32;19987;-77
2022/03/19 08:44:56;;;;;;;;;;;;;;;;;;4406935;32;20243;-80
2022/03/19 08:47:21;;;;;;;;;;;;;;;;;;4405780;32;19941;-75
2022/03/19 08:49:46;;;;;;;;;;;;;;;;;;4406068;32;19970;-77
2022/03/19 08:52:11;;;;;;;;;;;;;;;;;;4406050;32;19984;-78
2022/03/19 08:54:36;;;;;;;;;;;;;;;;;;4406286;32;19960;-77
2022/03/19 08:57:02;;;;;;;;;;;;;;;;;;4406932;32;19933;-78
2022/03/19 08:59:27;;;;;;;;;;;;;;;;;;4406123;32;20290;-79
2022/03/19 09:01:52;;;;;;;;;;;;;;;;;;4406807;32;20146;-77
2022/03/19 09:04:17;;;;;;;;;;;;;;;;;;4406549;32;19946;-78
2022/03/19 09:06:42;;;;;;;;;;;;;;;;;;4406016;32;19945;-77
2022/03/19 09:09:07;;;;;;;;;;;;;;;;;;4406209;32;20345;-77
2022/03/19 09:11:33;;;;;;;;;;;;;;;;;;4405651;32;20307;-77
2022/03/19 09:13:58;;;;;;;;;;;;;;;;;;4406242;32;19933;-79
2022/03/19 09:16:29;;;;;;;;;;;;;;;;;;4404012;32;19977;-79
2022/03/19 09:18:54;;;;;;;;;;;;;;;;;;4405814;32;19947;-77
2022/03/19 09:21:19;;;;;;;;;;;;;;;;;;4406079;32;20250;-78
2022/03/19 09:23:49;;;;;;;;;;;;;;;;;;4406285;32;19934;-75
2022/03/19 09:26:14;;;;;;;;;;;;;;;;;;4405932;32;19941;-78
2022/03/19 09:28:39;;;;;;;;;;;;;;;;;;4404967;32;19991;-80
2022/03/19 09:31:04;;;;;;;;;;;;;;;;;;4417352;32;19971;-78
2022/03/19 09:33:29;;;;;;;;;;;;;;;;;;4405659;32;19937;-77
2022/03/19 09:35:54;;;;;;;;;;;;;;;;;;4405803;32;19934;-79
2022/03/19 09:38:20;;;;;;;;;;;;;;;;;;4405635;32;19938;-78
2022/03/19 09:40:45;;;;;;;;;;;;;;;;;;4405104;32;19944;-79
2022/03/19 09:43:10;;;;;;;;;;;;;;;;;;4417279;32;19933;-75
2022/03/19 09:45:38;;;;;;;;;;;;;;;;;;4405310;32;19937;-79
2022/03/19 09:48:03;;;;;;;;;;;;;;;;;;4405527;32;20361;-77
2022/03/19 09:50:28;;;;;;;;;;;;;;;;;;4405714;32;20287;-76
2022/03/19 09:52:53;;;;;;;;;;;;;;;;;;4405974;32;19933;-76
2022/03/19 09:55:20;;;;;;;;;;;;;;;;;;4406225;32;20259;-79
2022/03/19 09:57:45;;;;;;;;;;;;;;;;;;4405307;32;19952;-77
2022/03/19 10:00:10;;;;;;;;;;;;;;;;;;4405272;32;19957;-75
2022/03/19 10:02:35;;;;;;;;;;;;;;;;;;4405357;32;19933;-77
2022/03/19 10:08:35;;;;;;;;;;;;;;;;;;4406038;32;20303;-76
2022/03/19 10:10:30;;;;;;;;;;;;;;;;;;4405458;32;20361;-79
2022/03/19 10:12:55;;;;;;;;;;;;;;;;;;4404080;32;19934;-74
2022/03/19 10:15:20;;;;;;;;;;;;;;;;;;4405796;32;19945;-78
2022/03/19 10:17:45;;;;;;;;;;;;;;;;;;4405072;32;20367;-77
2022/03/19 10:20:10;;;;;;;;;;;;;;;;;;4403815;32;19997;-78
2022/03/19 10:22:36;;;;;;;;;;;;;;;;;;4403981;32;20267;-79
2022/03/19 10:25:01;;;;;;;;;;;;;;;;;;4404491;32;19981;-76
2022/03/19 10:27:26;;;;;;;;;;;;;;;;;;4404100;32;19942;-76
2022/03/19 10:29:51;;;;;;;;;;;;;;;;;;4404452;32;19930;-78
2022/03/19 10:32:16;;;;;;;;;;;;;;;;;;4403958;32;19981;-78
2022/03/19 10:34:41;;;;;;;;;;;;;;;;;;4405792;32;19945;-78
2022/03/19 10:37:10;;;;;;;;;;;;;;;;;;4403843;32;19946;-76
2022/03/19 10:39:38;;;;;;;;;;;;;;;;;;4405931;32;19960;-78
2022/03/19 10:42:03;;;;;;;;;;;;;;;;;;4406869;32;20321;-74
2022/03/19 10:44:28;;;;;;;;;;;;;;;;;;4411235;32;20279;-79
2022/03/19 10:46:53;;;;;;;;;;;;;;;;;;4409708;32;19949;-77
2022/03/19 10:49:18;;;;;;;;;;;;;;;;;;4410720;32;19952;-79
2022/03/19 10:51:43;;;;;;;;;;;;;;;;;;4410407;32;19996;-77
2022/03/19 10:54:09;;;;;;;;;;;;;;;;;;4410687;32;19946;-76
2022/03/19 10:56:34;;;;;;;;;;;;;;;;;;4421741;32;19971;-79
2022/03/19 10:58:59;;;;;;;;;;;;;;;;;;4409370;32;19945;-80
2022/03/19 11:01:27;;;;;;;;;;;;;;;;;;4408760;32;19961;-79
2022/03/19 11:03:52;;;;;;;;;;;;;;;;;;4411139;32;19941;-77
2022/03/19 11:06:17;;;;;;;;;;;;;;;;;;4410123;32;19952;-78
2022/03/19 11:08:43;;;;;;;;;;;;;;;;;;4409592;32;19933;-79
2022/03/19 11:11:11;;;;;;;;;;;;;;;;;;4409178;32;20320;-79
2022/03/19 11:13:37;;;;;;;;;;;;;;;;;;4408677;32;19945;-76
2022/03/19 11:16:02;;;;;;;;;;;;;;;;;;4407815;32;19961;-77
2022/03/19 11:18:30;;;;;;;;;;;;;;;;;;4408425;32;19968;-77
2022/03/19 11:20:55;;;;;;;;;;;;;;;;;;4407792;32;19942;-79
2022/03/19 11:23:20;;;;;;;;;;;;;;;;;;4407799;32;19933;-75
2022/03/19 11:25:45;;;;;;;;;;;;;;;;;;4407503;32;19986;-80
2022/03/19 11:28:11;;;;;;;;;;;;;;;;;;4407431;32;19948;-77
2022/03/19 11:30:36;;;;;;;;;;;;;;;;;;4407848;32;19948;-76
2022/03/19 11:33:01;;;;;;;;;;;;;;;;;;4407306;32;20299;-75
2022/03/19 11:35:26;;;;;;;;;;;;;;;;;;4408001;32;19985;-79
2022/03/19 11:37:52;;;;;;;;;;;;;;;;;;4407767;32;19952;-78
2022/03/19 11:40:17;;;;;;;;;;;;;;;;;;4406299;32;19937;-78
2022/03/19 11:42:45;;;;;;;;;;;;;;;;;;4407504;32;19995;-79
2022/03/19 11:45:15;;;;;;;;;;;;;;;;;;4407950;32;19937;-78
2022/03/19 11:47:43;;;;;;;;;;;;;;;;;;4401801;32;20005;-76
2022/03/19 11:50:11;;;;;;;;;;;;;;;;;;4404809;32;19948;-77
2022/03/19 11:52:36;;;;;;;;;;;;;;;;;;4405415;32;20274;-80
2022/03/19 11:55:06;;;;;;;;;;;;;;;;;;4405455;32;20246;-79
2022/03/19 11:57:34;;;;;;;;;;;;;;;;;;4418257;32;19941;-78
2022/03/19 11:59:59;;;;;;;;;;;;;;;;;;4418558;32;19942;-79
2022/03/19 12:02:26;;;;;;;;;;;;;;;;;;4407068;32;19982;-79
2022/03/19 12:04:52;;;;;;;;;;;;;;;;;;4407066;32;19957;-79
2022/03/19 12:07:17;;;;;;;;;;;;;;;;;;4406950;32;20310;-80
2022/03/19 12:09:42;;;;;;;;;;;;;;;;;;4418370;32;19976;-77
2022/03/19 12:12:07;;;;;;;;;;;;;;;;;;4407245;32;19941;-73
2022/03/19 12:14:33;;;;;;;;;;;;;;;;;;4406611;32;19968;-78
2022/03/19 12:16:58;;;;;;;;;;;;;;;;;;4406720;32;19970;-81
2022/03/19 12:19:24;;;;;;;;;;;;;;;;;;4405890;32;19934;-79
2022/03/19 12:21:51;;;;;;;;;;;;;;;;;;4406104;32;19953;-80
2022/03/19 12:24:22;;;;;;;;;;;;;;;;;;4406700;32;19956;-78
2022/03/19 12:26:49;;;;;;;;;;;;;;;;;;4417736;32;19941;-76
2022/03/19 12:29:17;;;;;;;;;;;;;;;;;;4406831;32;19954;-79
2022/03/19 12:31:45;;;;;;;;;;;;;;;;;;4406889;32;20029;-76
2022/03/19 12:34:10;;;;;;;;;;;;;;;;;;4406543;32;19952;-78
2022/03/19 12:36:35;;;;;;;;;;;;;;;;;;4406677;32;20307;-75
2022/03/19 12:39:07;;;;;;;;;;;;;;;;;;4404814;32;20365;-78
2022/03/19 12:41:32;;;;;;;;;;;;;;;;;;4406567;32;19972;-80
2022/03/19 12:43:58;;;;;;;;;;;;;;;;;;4406202;32;19937;-77
2022/03/19 12:46:26;;;;;;;;;;;;;;;;;;4405954;32;20028;-76
2022/03/19 12:48:51;;;;;;;;;;;;;;;;;;4406117;32;19941;-76
2022/03/19 12:51:16;;;;;;;;;;;;;;;;;;4405646;32;19933;-75
2022/03/19 12:53:41;;;;;;;;;;;;;;;;;;4406857;32;19989;-79
2022/03/19 12:56:10;;;;;;;;;;;;;;;;;;4419494;32;19956;-77
2022/03/19 12:58:35;;;;;;;;;;;;;;;;;;4412029;32;19944;-77
2022/03/19 13:01:00;;;;;;;;;;;;;;;;;;4404730;32;19937;-77
2022/03/19 13:03:25;;;;;;;;;;;;;;;;;;4405253;32;20319;-76
2022/03/19 13:05:51;;;;;;;;;;;;;;;;;;4406176;32;20303;-80
2022/03/19 13:08:16;;;;;;;;;;;;;;;;;;4418718;32;19975;-78
2022/03/19 13:10:41;;;;;;;;;;;;;;;;;;4406097;32;19938;-81
2022/03/19 13:13:06;;;;;;;;;;;;;;;;;;4417723;32;20315;-81
2022/03/19 13:15:32;;;;;;;;;;;;;;;;;;4417500;32;19977;-78
2022/03/19 13:17:57;;;;;;;;;;;;;;;;;;4406321;32;19933;-81
2022/03/19 13:20:22;;;;;;;;;;;;;;;;;;4416945;32;20003;-83
2022/03/19 13:22:47;;;;;;;;;;;;;;;;;;4405999;32;19937;-78
2022/03/19 13:25:12;;;;;;;;;;;;;;;;;;4405907;32;19937;-79
2022/03/19 13:27:37;;;;;;;;;;;;;;;;;;4406668;32;19983;-81
2022/03/19 13:30:08;;;;;;;;;;;;;;;;;;4405655;32;20343;-80
2022/03/19 13:32:33;;;;;;;;;;;;;;;;;;4405172;32;19965;-79
2022/03/19 13:35:00;;;;;;;;;;;;;;;;;;4405192;32;19949;-79
2022/03/19 13:37:25;;;;;;;;;;;;;;;;;;4390513;32;20294;-81
2022/03/19 13:39:50;;;;;;;;;;;;;;;;;;4399816;32;20282;-80
2022/03/19 13:42:15;;;;;;;;;;;;;;;;;;4416881;32;20382;-81
2022/03/19 13:44:40;;;;;;;;;;;;;;;;;;4405459;32;19937;-80
2022/03/19 13:47:05;;;;;;;;;;;;;;;;;;4405143;32;19945;-78
2022/03/19 13:49:30;;;;;;;;;;;;;;;;;;4404612;32;19948;-79
2022/03/19 13:51:56;;;;;;;;;;;;;;;;;;4405549;32;20235;-80
2022/03/19 13:54:21;;;;;;;;;;;;;;;;;;4405344;32;19946;-81
2022/03/19 13:56:46;;;;;;;;;;;;;;;;;;4416922;32;20339;-81
2022/03/19 13:59:11;;;;;;;;;;;;;;;;;;4416802;32;19971;-81
2022/03/19 14:01:36;;;;;;;;;;;;;;;;;;4406199;32;19961;-81
2022/03/19 14:04:02;;;;;;;;;;;;;;;;;;4404068;32;19937;-79
2022/03/19 14:06:27;;;;;;;;;;;;;;;;;;4404924;32;19971;-78
2022/03/19 14:08:52;;;;;;;;;;;;;;;;;;4416812;32;19977;-80
2022/03/19 14:11:17;;;;;;;;;;;;;;;;;;4405666;32;19938;-79
2022/03/19 14:13:47;;;;;;;;;;;;;;;;;;4409631;32;20228;-81
2022/03/19 14:16:12;;;;;;;;;;;;;;;;;;4423796;32;19992;-76
2022/03/19 14:18:38;;;;;;;;;;;;;;;;;;4423793;32;19948;-78
2022/03/19 14:21:03;;;;;;;;;;;;;;;;;;4422133;32;20365;-80
2022/03/19 14:23:28;;;;;;;;;;;;;;;;;;4418960;32;19929;-81
2022/03/19 14:25:54;;;;;;;;;;;;;;;;;;4422775;32;19984;-77
2022/03/19 14:28:19;;;;;;;;;;;;;;;;;;4423772;32;20311;-77
2022/03/19 14:30:45;;;;;;;;;;;;;;;;;;4423158;32;19947;-78
2022/03/19 14:33:10;;;;;;;;;;;;;;;;;;4421850;32;19947;-77
2022/03/19 14:35:36;;;;;;;;;;;;;;;;;;4422107;32;20392;-78
2022/03/19 14:38:01;;;;;;;;;;;;;;;;;;4423237;32;19967;-76
2022/03/19 14:40:26;;;;;;;;;;;;;;;;;;4407943;32;19938;-77
2022/03/19 14:42:51;;;;;;;;;;;;;;;;;;4407308;32;19942;-75
2022/03/19 14:45:17;;;;;;;;;;;;;;;;;;4407919;32;19937;-77
2022/03/19 14:47:42;;;;;;;;;;;;;;;;;;4407580;32;20381;-74
2022/03/19 14:50:11;;;;;;;;;;;;;;;;;;4406298;32;19952;-78
2022/03/19 14:52:36;;;;;;;;;;;;;;;;;;4406340;32;19929;-77
2022/03/19 14:55:01;;;;;;;;;;;;;;;;;;4419143;32;19948;-76
2022/03/19 14:57:27;;;;;;;;;;;;;;;;;;4408328;32;19947;-80
2022/03/19 14:59:52;;;;;;;;;;;;;;;;;;4407714;32;19957;-77
2022/03/19 15:02:20;;;;;;;;;;;;;;;;;;4413750;32;19974;-77
2022/03/19 15:04:45;;;;;;;;;;;;;;;;;;4406523;32;19949;-77
2022/03/19 15:07:10;;;;;;;;;;;;;;;;;;4407743;32;19941;-79
2022/03/19 15:09:35;;;;;;;;;;;;;;;;;;4407741;32;20007;-78
2022/03/19 15:12:03;;;;;;;;;;;;;;;;;;4407477;32;19937;-76
2022/03/19 15:14:28;;;;;;;;;;;;;;;;;;4405865;32;19930;-79
2022/03/19 15:16:53;;;;;;;;;;;;;;;;;;4407184;32;19948;-79
2022/03/19 15:19:18;;;;;;;;;;;;;;;;;;4406131;32;20343;-79
2022/03/19 15:21:44;;;;;;;;;;;;;;;;;;4407964;32;19993;-79
2022/03/19 15:24:09;;;;;;;;;;;;;;;;;;4407268;32;19937;-79
2022/03/19 15:26:36;;;;;;;;;;;;;;;;;;4406907;32;19937;-76
2022/03/19 15:29:04;;;;;;;;;;;;;;;;;;4408179;32;20024;-80
2022/03/19 15:31:32;;;;;;;;;;;;;;;;;;4407142;32;19942;-79
2022/03/19 15:33:57;;;;;;;;;;;;;;;;;;4407457;32;19975;-78
2022/03/19 15:36:22;;;;;;;;;;;;;;;;;;4407584;32;19937;-78
2022/03/19 15:38:47;;;;;;;;;;;;;;;;;;4406940;32;19933;-79
2022/03/19 15:41:19;;;;;;;;;;;;;;;;;;4407540;32;19985;-75
2022/03/19 15:43:44;;;;;;;;;;;;;;;;;;4407502;32;20278;-76
2022/03/19 15:46:12;;;;;;;;;;;;;;;;;;4407363;32;20323;-77
2022/03/19 15:48:37;;;;;;;;;;;;;;;;;;4407170;32;19952;-77
2022/03/19 15:51:02;;;;;;;;;;;;;;;;;;4407259;32;19981;-77
2022/03/19 15:53:30;;;;;;;;;;;;;;;;;;4406915;32;19941;-75
2022/03/19 15:55:55;;;;;;;;;;;;;;;;;;4408077;32;20010;-77
2022/03/19 15:58:20;;;;;;;;;;;;;;;;;;4407611;32;19941;-76
2022/03/19 16:00:45;;;;;;;;;;;;;;;;;;4406785;32;19949;-74
2022/03/19 16:03:10;;;;;;;;;;;;;;;;;;4405731;32;20314;-76
2022/03/19 16:05:35;;;;;;;;;;;;;;;;;;4407019;32;19941;-75
2022/03/19 16:08:00;;;;;;;;;;;;;;;;;;4405786;32;19941;-77
2022/03/19 16:10:26;;;;;;;;;;;;;;;;;;4407889;32;19984;-78
2022/03/19 16:12:51;;;;;;;;;;;;;;;;;;4406565;32;19937;-75
2022/03/19 16:15:16;;;;;;;;;;;;;;;;;;4406768;32;19951;-77
2022/03/19 16:17:41;;;;;;;;;;;;;;;;;;4407674;32;19994;-74
2022/03/19 16:20:09;;;;;;;;;;;;;;;;;;4406577;32;19933;-75
2022/03/19 16:22:34;;;;;;;;;;;;;;;;;;4406798;32;19948;-76
2022/03/19 16:24:59;;;;;;;;;;;;;;;;;;4405282;32;19937;-78
2022/03/19 16:27:24;;;;;;;;;;;;;;;;;;4406226;32;19979;-74
2022/03/19 16:29:49;;;;;;;;;;;;;;;;;;4405027;32;20041;-75
2022/03/19 16:32:15;;;;;;;;;;;;;;;;;;4406557;32;19971;-75
2022/03/19 16:34:40;;;;;;;;;;;;;;;;;;4406448;32;19946;-75
2022/03/19 16:37:05;;;;;;;;;;;;;;;;;;4406522;32;19947;-76
2022/03/19 16:39:30;;;;;;;;;;;;;;;;;;4406361;32;20347;-78
2022/03/19 16:41:55;;;;;;;;;;;;;;;;;;4406732;32;19938;-78
2022/03/19 16:44:20;;;;;;;;;;;;;;;;;;4406272;32;19934;-78
2022/03/19 16:46:45;;;;;;;;;;;;;;;;;;4404794;32;20330;-74
2022/03/19 16:49:10;;;;;;;;;;;;;;;;;;4405909;32;19938;-75
2022/03/19 16:51:35;;;;;;;;;;;;;;;;;;4406483;32;19988;-76